This is the latest recevied weather packets stored in our database for station/object DM8MH-13. If no packets are shown the sender has not sent any weather packets the latest 10 day(s).
| Time | Temp. | Humidity | Pressure | Rain* | Wind** | Luminosity | Snow |
|---|---|---|---|---|---|---|---|
| 1788285072 | 18.89° C | 72% | 1018.8 hPa | 0 mm | - | 0 W/m² | - |
| 1788284472 | 19.44° C | 71% | 1018.8 hPa | 0 mm | - | 9 W/m² | - |
| 1788283871 | 20.56° C | 67% | 1018.7 hPa | 0 mm | - | 8 W/m² | - |
| 1788283271 | 21.67° C | 66% | 1018.4 hPa | 0 mm | - | 2 W/m² | - |
| 1788282671 | 21.67° C | 65% | 1018.1 hPa | 0 mm | - | 25 W/m² | - |
| 1788282071 | 22.22° C | 64% | 1018.3 hPa | 0 mm | - | 37 W/m² | - |
| 1788281472 | 22.22° C | 64% | 1018.1 hPa | 0 mm | - | 54 W/m² | - |
| 1788280872 | 22.22° C | 64% | 1018.1 hPa | 0 mm | - | 70 W/m² | - |
| 1788280271 | 22.22° C | 64% | 1018.1 hPa | 0 mm | - | 57 W/m² | - |
| 1788279671 | 22.78° C | 64% | 1018.2 hPa | 0 mm | - | 60 W/m² | - |
| 1788279071 | 23.33° C | 60% | 1018.2 hPa | 0 mm | - | 67 W/m² | - |
| 1788278472 | 23.33° C | 60% | 1018.2 hPa | 0 mm | - | 70 W/m² | - |
| 1788277872 | 23.33° C | 59% | 1018.2 hPa | 0 mm | - | 264 W/m² | - |
| 1788277270 | 23.33° C | 62% | 1018.1 hPa | 0 mm | - | 148 W/m² | - |
| 1788276671 | 22.78° C | 64% | 1018.3 hPa | 0 mm | - | 420 W/m² | - |
| 1788276071 | 21.67° C | 68% | 1018.2 hPa | 0 mm | - | 293 W/m² | - |
| 1788275472 | 21.67° C | 67% | 1018.3 hPa | 0 mm | - | 127 W/m² | - |
| 1788274871 | 22.22° C | 65% | 1018.4 hPa | 0 mm | - | 143 W/m² | - |
| 1788274272 | 22.78° C | 60% | 1018.3 hPa | 0 mm | - | 83 W/m² | - |
| 1788273672 | 23.33° C | 58% | 1018.2 hPa | 0 mm | - | 78 W/m² | - |
| 1788273071 | 23.33° C | 56% | 1018.2 hPa | 0 mm | - | 92 W/m² | - |
| 1788272471 | 23.89° C | 56% | 1018.1 hPa | 0 mm | - | 384 W/m² | - |
| 1788271871 | 23.89° C | 55% | 1018.2 hPa | 0 mm | - | 223 W/m² | - |
| 1788271271 | 23.89° C | 54% | 1018.1 hPa | 0 mm | - | 662 W/m² | - |
| 1788270686 | 23.89° C | 53% | 1018.2 hPa | 0 mm | - | 292 W/m² | - |
* Rain latest hour (hover to see other rain measurements)
** Current wind speed in m/s (hover to see current wind gust speed)